createdAt,value
2016-04-01T00:00:59.112Z,941.5
2016-04-01T00:01:59.053Z,941.51
2016-04-01T00:02:59.009Z,941.5
2016-04-01T00:03:58.949Z,941.51
2016-04-01T00:04:58.905Z,941.53
2016-04-01T00:05:58.860Z,941.47
2016-04-01T00:06:58.800Z,941.48
2016-04-01T00:07:58.756Z,941.47
2016-04-01T00:08:58.697Z,941.43
2016-04-01T00:09:58.652Z,941.48
2016-04-01T00:10:58.608Z,941.51
2016-04-01T00:11:58.549Z,941.53
2016-04-01T00:12:58.489Z,941.48
2016-04-01T00:13:58.460Z,941.5
2016-04-01T00:14:58.400Z,941.53
2016-04-01T00:15:58.340Z,941.53
2016-04-01T00:16:58.297Z,941.55
2016-04-01T00:17:58.252Z,941.55
2016-04-01T00:18:58.192Z,941.51
2016-04-01T00:19:58.149Z,941.47
2016-04-01T00:20:58.088Z,941.41
2016-04-01T00:21:58.043Z,941.51
2016-04-01T00:22:57.985Z,941.55
2016-04-01T00:23:57.940Z,941.54
2016-04-01T00:24:57.881Z,941.54
2016-04-01T00:25:57.837Z,941.5
2016-04-01T00:26:57.776Z,941.49
2016-04-01T00:27:57.748Z,941.52
2016-04-01T00:28:57.672Z,941.57
2016-04-01T00:29:57.628Z,941.62
2016-04-01T00:30:57.584Z,941.59
2016-04-01T00:31:57.524Z,941.5
2016-04-01T00:32:57.481Z,941.5
2016-04-01T00:33:57.436Z,941.49
2016-04-01T00:34:57.375Z,941.49
2016-04-01T00:35:57.332Z,941.54
2016-04-01T00:36:57.272Z,941.61
2016-04-01T00:37:57.227Z,941.54
2016-04-01T00:38:57.184Z,941.54
2016-04-01T00:39:57.124Z,941.53
2016-04-01T00:40:57.064Z,941.57
2016-04-01T00:41:57.020Z,941.65
2016-04-01T00:42:56.960Z,941.64
2016-04-01T00:43:56.932Z,941.61
2016-04-01T00:44:56.871Z,941.55
2016-04-01T00:45:56.812Z,941.57
2016-04-01T00:46:56.768Z,941.6
2016-04-01T00:47:56.707Z,941.61
2016-04-01T00:48:56.663Z,941.67
2016-04-01T00:49:56.604Z,941.61
2016-04-01T00:50:56.576Z,941.6
2016-04-01T00:51:56.516Z,941.58
2016-04-01T00:52:56.456Z,941.63
2016-04-01T00:53:56.411Z,941.74
2016-04-01T00:54:56.352Z,941.66
2016-04-01T00:55:56.308Z,941.62
2016-04-01T00:56:56.263Z,941.59
2016-04-01T00:57:56.204Z,941.57
2016-04-01T00:58:56.143Z,941.56
2016-04-01T00:59:56.100Z,941.59
2016-04-01T01:00:56.056Z,941.64
2016-04-01T01:01:55.996Z,941.65
2016-04-01T01:02:55.951Z,941.6
2016-04-01T01:03:55.892Z,941.62
2016-04-01T01:04:55.848Z,941.63
2016-04-01T01:05:55.787Z,941.63
2016-04-01T01:06:55.759Z,941.68
2016-04-01T01:07:55.683Z,941.64
2016-04-01T01:08:55.639Z,941.65
2016-04-01T01:09:55.595Z,941.68
2016-04-01T01:10:55.536Z,941.64
2016-04-01T01:11:55.491Z,941.66
2016-04-01T01:12:55.447Z,941.7
2016-04-01T01:13:55.388Z,941.69
2016-04-01T01:14:55.327Z,941.67
2016-04-01T01:15:55.283Z,941.66
2016-04-01T01:16:55.239Z,941.66
2016-04-01T01:17:55.179Z,941.65
2016-04-01T01:18:55.135Z,941.68
2016-04-01T01:19:55.075Z,941.75
2016-04-01T01:20:55.015Z,941.7
2016-04-01T01:21:54.971Z,941.71
2016-04-01T01:22:54.927Z,941.7
2016-04-01T01:23:54.867Z,941.71
2016-04-01T01:24:54.823Z,941.78
2016-04-01T01:25:54.763Z,941.75
2016-04-01T01:26:54.718Z,941.75
2016-04-01T01:27:54.659Z,941.78
2016-04-01T01:28:54.615Z,941.79
2016-04-01T01:29:54.556Z,941.77
2016-04-01T01:30:54.511Z,941.85
2016-04-01T01:31:54.451Z,941.78
2016-04-01T01:32:54.407Z,941.82
2016-04-01T01:33:54.347Z,941.85
2016-04-01T01:34:54.303Z,941.81
2016-04-01T01:35:54.274Z,941.78
2016-04-01T01:36:54.199Z,941.78
2016-04-01T01:37:54.139Z,941.8
2016-04-01T01:38:54.095Z,941.87
2016-04-01T01:39:54.035Z,941.86
2016-04-01T01:40:53.991Z,941.9
2016-04-01T01:41:53.931Z,941.92
2016-04-01T01:42:53.886Z,941.92
2016-04-01T01:43:53.827Z,941.96
2016-04-01T01:44:53.782Z,941.94
2016-04-01T01:45:53.739Z,942.03
2016-04-01T01:46:53.694Z,942.06
2016-04-01T01:47:53.619Z,942.03
2016-04-01T01:48:53.575Z,942.1
2016-04-01T01:49:53.515Z,942.1
2016-04-01T01:50:53.471Z,942.07
2016-04-01T01:51:53.411Z,942.08
2016-04-01T01:52:53.367Z,942.08
2016-04-01T01:53:53.338Z,942.03
2016-04-01T01:54:53.263Z,942.06
2016-04-01T01:55:53.204Z,942.1
2016-04-01T01:56:53.159Z,942.08
2016-04-01T01:57:53.115Z,942.12
2016-04-01T01:58:53.055Z,942.11
2016-04-01T01:59:53.011Z,942.1
2016-04-01T02:00:52.951Z,942.18
2016-04-01T02:01:52.922Z,942.18
2016-04-01T02:02:52.847Z,942.16
2016-04-01T02:03:52.787Z,942.18
2016-04-01T02:04:52.742Z,942.16
2016-04-01T02:05:52.698Z,942.18
2016-04-01T02:06:52.655Z,942.19
2016-04-01T02:07:52.600Z,942.22
2016-04-01T02:08:52.539Z,942.21
2016-04-01T02:09:52.480Z,942.23
2016-04-01T02:10:52.436Z,942.23
2016-04-01T02:11:52.377Z,942.23
2016-04-01T02:12:52.363Z,942.26
2016-04-01T02:13:52.288Z,942.28
2016-04-01T02:14:52.227Z,942.22
2016-04-01T02:15:52.168Z,942.23
2016-04-01T02:16:52.140Z,942.23
2016-04-01T02:17:52.064Z,942.16
2016-04-01T02:18:52.021Z,942.24
2016-04-01T02:19:51.960Z,942.23
2016-04-01T02:20:51.915Z,942.23
2016-04-01T02:21:51.856Z,942.26
2016-04-01T02:22:51.812Z,942.24
2016-04-01T02:23:51.752Z,942.26
2016-04-01T02:24:51.723Z,942.26
2016-04-01T02:25:51.664Z,942.31
2016-04-01T02:26:51.604Z,942.37
2016-04-01T02:27:51.560Z,942.31
2016-04-01T02:28:51.501Z,942.44
2016-04-01T02:29:51.456Z,942.44
2016-04-01T02:30:51.396Z,942.4
2016-04-01T02:31:51.336Z,942.44
2016-04-01T02:32:51.308Z,942.44
2016-04-01T02:33:51.231Z,942.49
2016-04-01T02:34:51.203Z,942.5
2016-04-01T02:35:51.128Z,942.57
2016-04-01T02:36:51.084Z,942.56
2016-04-01T02:37:51.040Z,942.58
2016-04-01T02:38:50.995Z,942.63
2016-04-01T02:39:50.936Z,942.62
2016-04-01T02:40:50.875Z,942.65
2016-04-01T02:41:50.832Z,942.69
2016-04-01T02:42:50.771Z,942.64
2016-04-01T02:43:50.743Z,942.72
2016-04-01T02:44:50.668Z,942.72
2016-04-01T02:45:50.623Z,942.68
2016-04-01T02:46:50.563Z,942.75
2016-04-01T02:47:50.519Z,942.73
2016-04-01T02:48:50.459Z,942.76
2016-04-01T02:49:50.399Z,942.77
2016-04-01T02:50:50.371Z,942.78
2016-04-01T02:51:50.296Z,942.78
2016-04-01T02:52:50.252Z,942.82
2016-04-01T02:53:50.193Z,942.81
2016-04-01T02:54:50.148Z,942.82
2016-04-01T02:55:50.088Z,942.78
2016-04-01T02:56:50.044Z,942.76
2016-04-01T02:57:50.000Z,942.77
2016-04-01T02:58:49.940Z,942.78
2016-04-01T02:59:49.881Z,942.77
2016-04-01T03:00:50.148Z,942.8
2016-04-01T03:01:49.776Z,942.86
2016-04-01T03:02:49.732Z,942.82
2016-04-01T03:03:49.672Z,942.85
2016-04-01T03:04:49.644Z,942.86
2016-04-01T03:05:49.567Z,942.85
2016-04-01T03:06:49.525Z,942.85
2016-04-01T03:07:49.464Z,942.87
2016-04-01T03:08:49.419Z,942.86
2016-04-01T03:09:49.361Z,942.85
2016-04-01T03:10:49.316Z,942.88
2016-04-01T03:11:49.272Z,943
2016-04-01T03:12:49.212Z,943.02
2016-04-01T03:13:49.168Z,943.01
2016-04-01T03:14:49.108Z,943.06
2016-04-01T03:15:49.079Z,943.08
2016-04-01T03:16:49.019Z,943.11
2016-04-01T03:17:48.959Z,943.11
2016-04-01T03:18:48.899Z,943.12
2016-04-01T03:19:48.840Z,943.15
2016-04-01T03:20:48.796Z,943.18
2016-04-01T03:21:48.752Z,943.23
2016-04-01T03:22:48.707Z,943.29
2016-04-01T03:23:48.632Z,943.33
2016-04-01T03:24:48.588Z,943.35
2016-04-01T03:25:48.559Z,943.44
2016-04-01T03:26:48.484Z,943.49
2016-04-01T03:27:48.440Z,943.52
2016-04-01T03:28:48.380Z,943.55
2016-04-01T03:29:48.336Z,943.55
2016-04-01T03:30:48.276Z,943.6
2016-04-01T03:31:48.217Z,943.59
2016-04-01T03:32:48.188Z,943.62
2016-04-01T03:33:48.127Z,943.62
2016-04-01T03:34:48.067Z,943.58
2016-04-01T03:35:48.023Z,943.66
2016-04-01T03:36:47.964Z,943.65
2016-04-01T03:37:47.920Z,943.6
2016-04-01T03:38:47.860Z,943.67
2016-04-01T03:39:47.816Z,943.76
2016-04-01T03:40:47.756Z,943.72
2016-04-01T03:41:47.711Z,943.76
2016-04-01T03:42:47.667Z,943.82
2016-04-01T03:43:47.608Z,943.86
2016-04-01T03:44:47.564Z,943.86
2016-04-01T03:45:47.504Z,943.92
2016-04-01T03:46:47.460Z,943.95
2016-04-01T03:47:47.400Z,943.97
2016-04-01T03:48:47.355Z,943.96
2016-04-01T03:49:47.311Z,944
2016-04-01T03:50:47.252Z,944.02
2016-04-01T03:51:47.207Z,944.05
2016-04-01T03:52:47.148Z,944.05
2016-04-01T03:53:47.104Z,944.1
2016-04-01T03:54:47.060Z,944.12
2016-04-01T03:55:46.999Z,944.15
2016-04-01T03:56:46.954Z,944.14
2016-04-01T03:57:46.895Z,944.17
2016-04-01T03:58:46.851Z,944.21
2016-04-01T03:59:46.806Z,944.23
2016-04-01T04:00:46.747Z,944.26
2016-04-01T04:01:46.718Z,944.28
2016-04-01T04:02:46.643Z,944.3
2016-04-01T04:03:46.599Z,944.3
2016-04-01T04:04:46.555Z,944.31
2016-04-01T04:05:46.495Z,944.38
2016-04-01T04:06:46.451Z,944.37
2016-04-01T04:07:46.391Z,944.39
2016-04-01T04:08:46.347Z,944.43
2016-04-01T04:09:46.303Z,944.43
2016-04-01T04:10:46.242Z,944.46
2016-04-01T04:11:46.199Z,944.54
2016-04-01T04:12:46.155Z,944.61
2016-04-01T04:13:46.094Z,944.63
2016-04-01T04:14:46.050Z,944.64
2016-04-01T04:15:45.991Z,944.64
2016-04-01T04:16:45.947Z,944.62
2016-04-01T04:17:45.902Z,944.66
2016-04-01T04:18:45.843Z,944.73
2016-04-01T04:19:45.799Z,944.75
2016-04-01T04:20:45.941Z,944.79
2016-04-01T04:21:45.710Z,944.84
2016-04-01T04:22:45.650Z,944.82
2016-04-01T04:23:45.591Z,944.87
2016-04-01T04:24:45.546Z,944.96
2016-04-01T04:25:45.502Z,944.98
2016-04-01T04:26:45.443Z,945.01
2016-04-01T04:27:45.383Z,945.08
2016-04-01T04:28:45.338Z,945.08
2016-04-01T04:29:45.294Z,945.1
2016-04-01T04:30:45.235Z,945.16
2016-04-01T04:31:45.190Z,945.19
2016-04-01T04:32:45.131Z,945.22
2016-04-01T04:33:45.101Z,945.25
2016-04-01T04:34:45.042Z,945.25
2016-04-01T04:35:44.998Z,945.31
2016-04-01T04:36:44.937Z,945.31
2016-04-01T04:37:44.894Z,945.31
2016-04-01T04:38:44.834Z,945.4
2016-04-01T04:39:44.789Z,945.45
2016-04-01T04:40:44.730Z,945.48
2016-04-01T04:41:44.686Z,945.46
2016-04-01T04:42:44.626Z,945.48
2016-04-01T04:43:44.582Z,945.51
2016-04-01T04:44:44.538Z,945.56
2016-04-01T04:45:44.494Z,945.58
2016-04-01T04:46:44.433Z,945.61
2016-04-01T04:47:44.374Z,945.7
2016-04-01T04:48:44.330Z,945.71
2016-04-01T04:49:44.285Z,945.7
2016-04-01T04:50:44.225Z,945.8
2016-04-01T04:51:44.182Z,945.8
2016-04-01T04:52:44.121Z,945.87
2016-04-01T04:53:44.077Z,945.93
2016-04-01T04:54:44.018Z,945.96
2016-04-01T04:55:43.973Z,946.01
2016-04-01T04:56:43.930Z,946.06
2016-04-01T04:57:43.869Z,946.08
2016-04-01T04:58:43.825Z,946.19
2016-04-01T04:59:43.766Z,946.21
2016-04-01T05:00:43.721Z,946.21
2016-04-01T05:01:43.661Z,946.25
2016-04-01T05:02:43.618Z,946.25
2016-04-01T05:03:43.573Z,946.29
2016-04-01T05:04:43.513Z,946.27
2016-04-01T05:05:43.453Z,946.3
2016-04-01T05:06:43.409Z,946.29
2016-04-01T05:07:43.349Z,946.31
2016-04-01T05:08:43.305Z,946.26
2016-04-01T05:09:43.245Z,946.29
2016-04-01T05:10:43.201Z,946.26
2016-04-01T05:11:43.172Z,946.28
2016-04-01T05:12:43.098Z,946.3
2016-04-01T05:13:43.053Z,946.38
2016-04-01T05:14:43.008Z,946.31
2016-04-01T05:15:42.950Z,946.33
2016-04-01T05:16:42.905Z,946.36
2016-04-01T05:17:42.844Z,946.32
2016-04-01T05:18:42.800Z,946.41
2016-04-01T05:19:42.741Z,946.46
2016-04-01T05:20:42.681Z,946.49
2016-04-01T05:21:42.638Z,946.54
2016-04-01T05:22:42.593Z,946.53
2016-04-01T05:23:42.533Z,946.57
2016-04-01T05:24:42.474Z,946.58
2016-04-01T05:25:42.430Z,946.61
2016-04-01T05:26:42.385Z,946.71
2016-04-01T05:27:42.340Z,946.72
2016-04-01T05:28:42.281Z,946.77
2016-04-01T05:29:42.237Z,946.75
2016-04-01T05:30:42.177Z,946.81
2016-04-01T05:31:42.132Z,946.81
2016-04-01T05:32:42.073Z,946.87
2016-04-01T05:33:42.029Z,946.89
2016-04-01T05:34:41.968Z,946.97
2016-04-01T05:35:41.909Z,946.96
2016-04-01T05:36:41.865Z,946.98
2016-04-01T05:37:41.806Z,947.04
2016-04-01T05:38:41.762Z,947.1
2016-04-01T05:39:41.717Z,947.13
2016-04-01T05:40:41.672Z,947.12
2016-04-01T05:41:41.613Z,947.12
2016-04-01T05:42:41.569Z,947.14
2016-04-01T05:43:41.509Z,947.19
2016-04-01T05:44:41.464Z,947.2
2016-04-01T05:45:41.405Z,947.25
2016-04-01T05:46:41.361Z,947.24
2016-04-01T05:47:41.301Z,947.24
2016-04-01T05:48:41.241Z,947.26
2016-04-01T05:49:41.196Z,947.26
2016-04-01T05:50:41.152Z,947.26
2016-04-01T05:51:41.093Z,947.3
2016-04-01T05:52:41.049Z,947.33
2016-04-01T05:53:41.005Z,947.32
2016-04-01T05:54:40.944Z,947.31
2016-04-01T05:55:40.885Z,947.39
2016-04-01T05:56:40.841Z,947.38
2016-04-01T05:57:40.780Z,947.38
2016-04-01T05:58:40.737Z,947.35
2016-04-01T05:59:40.677Z,947.4
2016-04-01T06:00:40.632Z,947.38
2016-04-01T06:01:40.574Z,947.4
2016-04-01T06:02:40.528Z,947.42
2016-04-01T06:03:40.484Z,947.42
2016-04-01T06:04:40.424Z,947.42
2016-04-01T06:05:40.380Z,947.43
2016-04-01T06:06:40.321Z,947.45
2016-04-01T06:07:40.276Z,947.48
2016-04-01T06:08:40.221Z,947.45
2016-04-01T06:09:40.177Z,947.49
2016-04-01T06:10:40.117Z,947.49
2016-04-01T06:11:40.072Z,947.55
2016-04-01T06:12:40.013Z,947.53
2016-04-01T06:13:39.969Z,947.59
2016-04-01T06:14:39.925Z,947.61
2016-04-01T06:15:39.865Z,947.62
2016-04-01T06:16:39.805Z,947.62
2016-04-01T06:17:39.760Z,947.58
2016-04-01T06:18:39.716Z,947.64
2016-04-01T06:19:39.657Z,947.7
2016-04-01T06:20:39.612Z,947.66
2016-04-01T06:21:39.551Z,947.73
2016-04-01T06:22:39.508Z,947.79
2016-04-01T06:23:39.449Z,947.78
2016-04-01T06:24:39.404Z,947.81
2016-04-01T06:25:39.359Z,947.81
2016-04-01T06:26:39.300Z,947.83
2016-04-01T06:27:39.256Z,947.87
2016-04-01T06:28:39.196Z,947.89
2016-04-01T06:29:39.152Z,947.97
2016-04-01T06:30:39.089Z,948
2016-04-01T06:31:39.045Z,947.99
2016-04-01T06:32:38.986Z,947.98
2016-04-01T06:33:38.957Z,947.97
2016-04-01T06:34:38.914Z,948.02
2016-04-01T06:35:38.837Z,948.04
2016-04-01T06:36:38.778Z,948.05
2016-04-01T06:37:38.734Z,948.05
2016-04-01T06:38:38.689Z,947.98
2016-04-01T06:39:38.630Z,947.97
2016-04-01T06:40:38.586Z,947.99
2016-04-01T06:41:38.525Z,947.97
2016-04-01T06:42:38.481Z,947.97
2016-04-01T06:43:38.421Z,948.07
2016-04-01T06:44:38.377Z,948.07
2016-04-01T06:45:38.333Z,948.11
2016-04-01T06:46:38.273Z,948.15
2016-04-01T06:47:38.229Z,948.14
2016-04-01T06:48:38.185Z,948.14
2016-04-01T06:49:38.125Z,948.16
2016-04-01T06:50:38.082Z,948.15
2016-04-01T06:51:38.021Z,948.18
2016-04-01T06:52:37.977Z,948.22
2016-04-01T06:53:37.918Z,948.24
2016-04-01T06:54:37.873Z,948.26
2016-04-01T06:55:37.829Z,948.28
2016-04-01T06:56:37.769Z,948.29
2016-04-01T06:57:37.709Z,948.37
2016-04-01T06:58:37.665Z,948.44
2016-04-01T06:59:37.636Z,948.5
2016-04-01T07:00:37.561Z,948.51
2016-04-01T07:01:37.517Z,948.55
2016-04-01T07:02:37.504Z,948.58
2016-04-01T07:03:37.444Z,948.56
2016-04-01T07:04:37.369Z,948.59
2016-04-01T07:05:37.309Z,948.58
2016-04-01T07:06:37.250Z,948.54
2016-04-01T07:07:37.252Z,948.56
2016-04-01T07:08:37.144Z,948.55
2016-04-01T07:09:37.100Z,948.61
2016-04-01T07:10:37.056Z,948.64
2016-04-01T07:11:36.997Z,948.66
2016-04-01T07:12:36.953Z,948.69
2016-04-01T07:13:36.893Z,948.66
2016-04-01T07:14:36.849Z,948.69
2016-04-01T07:15:36.804Z,948.64
2016-04-01T07:16:36.760Z,948.69
2016-04-01T07:17:36.700Z,948.72
2016-04-01T07:18:36.735Z,948.73
2016-04-01T07:19:36.597Z,948.73
2016-04-01T07:20:36.553Z,948.74
2016-04-01T07:21:36.493Z,948.77
2016-04-01T07:22:36.448Z,948.8
2016-04-01T07:23:36.388Z,948.79
2016-04-01T07:24:36.330Z,948.85
2016-04-01T07:25:36.284Z,948.86
2016-04-01T07:26:36.240Z,948.89
2016-04-01T07:27:36.181Z,948.92
2016-04-01T07:28:36.137Z,948.93
2016-04-01T07:29:36.092Z,948.92
2016-04-01T07:30:36.033Z,948.93
2016-04-01T07:31:35.973Z,948.92
2016-04-01T07:32:35.928Z,948.88
2016-04-01T07:33:35.901Z,948.9
2016-04-01T07:34:35.825Z,948.9
2016-04-01T07:35:35.781Z,948.9
2016-04-01T07:36:35.721Z,948.9
2016-04-01T07:37:35.677Z,948.93
2016-04-01T07:38:35.632Z,948.97
2016-04-01T07:39:35.573Z,948.96
2016-04-01T07:40:35.529Z,948.96
2016-04-01T07:41:35.469Z,948.97
2016-04-01T07:42:35.425Z,948.98
2016-04-01T07:43:35.365Z,948.97
2016-04-01T07:44:35.307Z,949.01
2016-04-01T07:45:35.246Z,949.04
2016-04-01T07:46:35.172Z,949.07
2016-04-01T07:47:35.112Z,949.13
2016-04-01T07:48:35.052Z,949.14
2016-04-01T07:49:34.987Z,949.2
2016-04-01T07:50:34.937Z,949.2
2016-04-01T07:51:34.871Z,949.21
2016-04-01T07:52:34.822Z,949.25
2016-04-01T07:53:34.758Z,949.24
2016-04-01T07:54:34.710Z,949.27
2016-04-01T07:55:34.649Z,949.3
2016-04-01T07:56:34.603Z,949.34
2016-04-01T07:57:34.557Z,949.33
2016-04-01T07:58:34.495Z,949.35
2016-04-01T07:59:34.450Z,949.34
2016-04-01T08:00:34.406Z,949.36
2016-04-01T08:01:34.345Z,949.36
2016-04-01T08:02:34.300Z,949.36
2016-04-01T08:03:34.255Z,949.36
2016-04-01T08:04:34.195Z,949.39
2016-04-01T08:05:34.150Z,949.42
2016-04-01T08:06:34.089Z,949.44
2016-04-01T08:07:34.046Z,949.4
2016-04-01T08:08:34.001Z,949.46
2016-04-01T08:09:33.941Z,949.41
2016-04-01T08:10:33.881Z,949.4
2016-04-01T08:11:33.837Z,949.42
2016-04-01T08:12:33.793Z,949.38
2016-04-01T08:13:33.749Z,949.35
2016-04-01T08:14:33.689Z,949.33
2016-04-01T08:15:33.645Z,949.35
2016-04-01T08:16:33.601Z,949.38
2016-04-01T08:17:33.540Z,949.37
2016-04-01T08:18:33.543Z,949.44
2016-04-01T08:19:33.453Z,949.43
2016-04-01T08:20:33.392Z,949.43
2016-04-01T08:21:33.348Z,949.43
2016-04-01T08:22:33.288Z,949.44
2016-04-01T08:23:33.244Z,949.48
2016-04-01T08:24:33.200Z,949.47
2016-04-01T08:25:33.140Z,949.45
2016-04-01T08:26:33.111Z,949.48
2016-04-01T08:27:33.051Z,949.5
2016-04-01T08:28:33.007Z,949.5
2016-04-01T08:29:32.964Z,949.53
2016-04-01T08:30:32.903Z,949.5
2016-04-01T08:31:32.860Z,949.55
2016-04-01T08:32:32.800Z,949.53
2016-04-01T08:33:32.755Z,949.51
2016-04-01T08:34:32.727Z,949.53
2016-04-01T08:35:32.652Z,949.6
2016-04-01T08:36:32.607Z,949.62
2016-04-01T08:37:32.563Z,949.66
2016-04-01T08:38:32.519Z,949.65
2016-04-01T08:39:32.459Z,949.68
2016-04-01T08:40:32.415Z,949.72
2016-04-01T08:41:32.355Z,949.69
2016-04-01T08:42:32.310Z,949.71
2016-04-01T08:43:32.267Z,949.75
2016-04-01T08:44:32.207Z,949.75
2016-04-01T08:45:32.179Z,949.78
2016-04-01T08:46:32.118Z,949.78
2016-04-01T08:47:32.059Z,949.81
2016-04-01T08:48:32.015Z,949.8
2016-04-01T08:49:31.970Z,949.81
2016-04-01T08:50:31.911Z,949.81
2016-04-01T08:51:31.867Z,949.85
2016-04-01T08:52:31.823Z,949.9
2016-04-01T08:53:31.762Z,949.87
2016-04-01T08:54:31.718Z,949.88
2016-04-01T08:55:31.675Z,949.9
2016-04-01T08:56:31.614Z,949.91
2016-04-01T08:57:31.586Z,950.01
2016-04-01T08:58:31.541Z,950.02
2016-04-01T08:59:31.466Z,950.01
2016-04-01T09:00:31.422Z,950.04
2016-04-01T09:01:31.377Z,949.98
2016-04-01T09:02:31.318Z,950.01
2016-04-01T09:03:31.274Z,950.02
2016-04-01T09:04:31.229Z,950.05
2016-04-01T09:05:31.185Z,950.09
2016-04-01T09:06:31.125Z,950.1
2016-04-01T09:07:31.082Z,950.18
2016-04-01T09:08:31.037Z,950.22
2016-04-01T09:09:30.977Z,950.27
2016-04-01T09:10:30.933Z,950.26
2016-04-01T09:11:30.888Z,950.34
2016-04-01T09:12:30.829Z,950.34
2016-04-01T09:13:30.785Z,950.35
2016-04-01T09:14:30.740Z,950.31
2016-04-01T09:15:30.681Z,950.32
2016-04-01T09:16:30.637Z,950.34
2016-04-01T09:17:30.593Z,950.39
2016-04-01T09:18:30.595Z,950.4
2016-04-01T09:19:30.489Z,950.43
2016-04-01T09:20:30.445Z,950.44
2016-04-01T09:21:30.400Z,950.42
2016-04-01T09:22:30.340Z,950.44
2016-04-01T09:23:30.295Z,950.45
2016-04-01T09:24:30.236Z,950.43
2016-04-01T09:25:30.192Z,950.43
2016-04-01T09:26:30.147Z,950.45
2016-04-01T09:27:30.103Z,950.5
2016-04-01T09:28:30.044Z,950.52
2016-04-01T09:29:29.999Z,950.57
2016-04-01T09:30:29.955Z,950.53
2016-04-01T09:31:29.896Z,950.54
2016-04-01T09:32:29.852Z,950.59
2016-04-01T09:33:29.808Z,950.61
2016-04-01T09:34:29.764Z,950.59
2016-04-01T09:35:29.719Z,950.63
2016-04-01T09:36:29.660Z,950.59
2016-04-01T09:37:29.616Z,950.6
2016-04-01T09:38:29.555Z,950.67
2016-04-01T09:39:29.511Z,950.66
2016-04-01T09:40:29.466Z,950.61
2016-04-01T09:41:29.423Z,950.66
2016-04-01T09:42:29.363Z,950.64
2016-04-01T09:43:29.319Z,950.64
2016-04-01T09:44:29.274Z,950.65
2016-04-01T09:45:29.230Z,950.63
2016-04-01T09:46:29.187Z,950.67
2016-04-01T09:47:29.127Z,950.66
2016-04-01T09:48:29.083Z,950.68
2016-04-01T09:49:29.038Z,950.69
2016-04-01T09:50:28.979Z,950.68
2016-04-01T09:51:28.934Z,950.72
2016-04-01T09:52:28.890Z,950.74
2016-04-01T09:53:28.845Z,950.76
2016-04-01T09:54:28.786Z,950.73
2016-04-01T09:55:28.742Z,950.78
2016-04-01T09:56:28.698Z,950.77
2016-04-01T09:57:28.653Z,950.77
2016-04-01T09:58:28.594Z,950.77
2016-04-01T09:59:28.565Z,950.83
2016-04-01T10:00:28.520Z,950.83
2016-04-01T10:01:28.461Z,950.87
2016-04-01T10:02:28.416Z,950.9
2016-04-01T10:03:28.357Z,950.94
2016-04-01T10:04:28.313Z,950.91
2016-04-01T10:05:28.283Z,950.99
2016-04-01T10:06:28.240Z,951
2016-04-01T10:07:28.164Z,950.97
2016-04-01T10:08:28.136Z,950.95
2016-04-01T10:09:28.077Z,951.04
2016-04-01T10:10:28.033Z,951.02
2016-04-01T10:11:27.988Z,950.96
2016-04-01T10:12:27.944Z,951
2016-04-01T10:13:27.915Z,951
2016-04-01T10:14:27.840Z,951.04
2016-04-01T10:15:27.795Z,951.04
2016-04-01T10:16:27.735Z,951.06
2016-04-01T10:17:27.691Z,951.06
2016-04-01T10:18:27.648Z,951.07
2016-04-01T10:19:27.604Z,951.04
2016-04-01T10:20:27.543Z,951.07
2016-04-01T10:21:27.499Z,951.12
2016-04-01T10:22:27.454Z,951.11
2016-04-01T10:23:27.411Z,951.11
2016-04-01T10:24:27.351Z,951.15
2016-04-01T10:25:27.306Z,951.13
2016-04-01T10:26:27.262Z,951.18
2016-04-01T10:27:27.217Z,951.18
2016-04-01T10:28:27.175Z,951.2
2016-04-01T10:29:27.130Z,951.22
2016-04-01T10:30:27.070Z,951.25
2016-04-01T10:31:27.041Z,951.26
2016-04-01T10:32:26.981Z,951.21
2016-04-01T10:33:26.922Z,951.31
2016-04-01T10:34:26.894Z,951.23
2016-04-01T10:35:26.834Z,951.26
2016-04-01T10:36:26.790Z,951.28
2016-04-01T10:37:26.730Z,951.29
2016-04-01T10:38:26.686Z,951.3
2016-04-01T10:39:26.641Z,951.36
2016-04-01T10:40:26.597Z,951.37
2016-04-01T10:41:26.537Z,951.39
2016-04-01T10:42:26.508Z,951.41
2016-04-01T10:43:26.449Z,951.43
2016-04-01T10:44:26.389Z,951.45
2016-04-01T10:45:26.361Z,951.45
2016-04-01T10:46:26.301Z,951.48
2016-04-01T10:47:26.241Z,951.49
2016-04-01T10:48:26.196Z,951.5
2016-04-01T10:49:26.152Z,951.56
2016-04-01T10:50:26.092Z,951.57
2016-04-01T10:51:26.048Z,951.64
2016-04-01T10:52:26.004Z,951.66
2016-04-01T10:53:25.960Z,951.67
2016-04-01T10:54:25.916Z,951.69
2016-04-01T10:55:25.856Z,951.68
2016-04-01T10:56:25.812Z,951.71
2016-04-01T10:57:25.767Z,951.68
2016-04-01T10:58:25.708Z,951.74
2016-04-01T10:59:25.664Z,951.74
2016-04-01T11:00:25.620Z,951.73
2016-04-01T11:01:25.559Z,951.75
2016-04-01T11:02:25.531Z,951.71
2016-04-01T11:03:25.472Z,951.73
2016-04-01T11:04:25.411Z,951.82
2016-04-01T11:05:25.367Z,951.83
2016-04-01T11:06:25.322Z,951.78
2016-04-01T11:07:25.272Z,951.8
2016-04-01T11:08:25.212Z,951.81
2016-04-01T11:09:25.168Z,951.81
2016-04-01T11:10:25.125Z,951.8
2016-04-01T11:11:25.064Z,951.78
2016-04-01T11:12:25.020Z,951.81
2016-04-01T11:13:24.975Z,951.82
2016-04-01T11:14:24.916Z,951.86
2016-04-01T11:15:24.872Z,951.9
2016-04-01T11:16:24.812Z,951.9
2016-04-01T11:17:24.769Z,951.95
2016-04-01T11:18:24.708Z,951.98
2016-04-01T11:19:24.664Z,951.99
2016-04-01T11:20:24.619Z,951.98
2016-04-01T11:21:24.575Z,952.03
2016-04-01T11:22:24.515Z,952.05
2016-04-01T11:23:24.471Z,952.09
2016-04-01T11:24:24.412Z,952.12
2016-04-01T11:25:24.352Z,952.13
2016-04-01T11:26:24.308Z,952.11
2016-04-01T11:27:24.263Z,952.16
2016-04-01T11:28:24.204Z,952.15
2016-04-01T11:29:24.159Z,952.16
2016-04-01T11:30:24.099Z,952.2
2016-04-01T11:31:24.055Z,952.16
2016-04-01T11:32:24.011Z,952.16
2016-04-01T11:33:23.951Z,952.2
2016-04-01T11:34:23.907Z,952.19
2016-04-01T11:35:23.848Z,952.24
2016-04-01T11:36:23.803Z,952.23
2016-04-01T11:37:23.743Z,952.24
2016-04-01T11:38:23.699Z,952.22
2016-04-01T11:39:23.639Z,952.25
2016-04-01T11:40:23.595Z,952.28
2016-04-01T11:41:23.536Z,952.32
2016-04-01T11:42:23.492Z,952.31
2016-04-01T11:43:23.447Z,952.33
2016-04-01T11:44:23.387Z,952.27
2016-04-01T11:45:23.344Z,952.31
2016-04-01T11:46:23.299Z,952.39
2016-04-01T11:47:23.239Z,952.42
2016-04-01T11:48:23.179Z,952.45
2016-04-01T11:49:23.136Z,952.49
2016-04-01T11:50:23.091Z,952.51
2016-04-01T11:51:23.031Z,952.56
2016-04-01T11:52:22.972Z,952.58
2016-04-01T11:53:22.943Z,952.57
2016-04-01T11:54:22.868Z,952.57
2016-04-01T11:55:22.823Z,952.57
2016-04-01T11:56:22.763Z,952.53
2016-04-01T11:57:22.718Z,952.54
2016-04-01T11:58:22.659Z,952.54
2016-04-01T11:59:22.615Z,952.51
2016-04-01T12:00:22.555Z,952.51
2016-04-01T12:01:22.512Z,952.51
2016-04-01T12:02:22.451Z,952.51
2016-04-01T12:03:22.407Z,952.53
2016-04-01T12:04:22.378Z,952.55
2016-04-01T12:05:22.303Z,952.59
2016-04-01T12:06:22.259Z,952.54
2016-04-01T12:07:22.215Z,952.57
2016-04-01T12:08:22.140Z,952.58
2016-04-01T12:09:22.095Z,952.55
2016-04-01T12:10:22.051Z,952.6
2016-04-01T12:11:21.991Z,952.61
2016-04-01T12:12:21.947Z,952.61
2016-04-01T12:13:21.886Z,952.61
2016-04-01T12:14:21.842Z,952.64
2016-04-01T12:15:21.783Z,952.54
2016-04-01T12:16:21.739Z,952.6
2016-04-01T12:17:21.680Z,952.57
2016-04-01T12:18:24.808Z,952.56
2016-04-01T12:19:21.591Z,952.57
2016-04-01T12:20:21.531Z,952.57
2016-04-01T12:21:21.486Z,952.62
2016-04-01T12:22:21.427Z,952.58
2016-04-01T12:23:21.366Z,952.58
2016-04-01T12:24:21.323Z,952.54
2016-04-01T12:25:21.263Z,952.53
2016-04-01T12:26:21.218Z,952.49
2016-04-01T12:27:21.160Z,952.5
2016-04-01T12:28:21.115Z,952.51
2016-04-01T12:29:21.071Z,952.53
2016-04-01T12:30:21.010Z,952.53
2016-04-01T12:31:20.967Z,952.53